Time;durP1;ratioP1;P1;durP2;ratioP2;P2;SDS_P1;SDS_P2;PMS_P1;PMS_P2;Temp;Humidity;BMP_temperature;BMP_pressure;BME280_temperature;BME280_humidity;BME280_pressure;Samples;Min_cycle;Max_cycle;Signal;HPM_P1;HPM_P2
2021/07/29 00:01:37;;;;;;;;;2.00;2.00;;;;;19.17;100.00;101137.63;5086459;27;45536;-69
2021/07/29 00:04:02;;;;;;;;;2.25;2.25;;;;;19.16;100.00;101139.41;5094795;27;45315;-69
2021/07/29 00:06:28;;;;;;;;;3.25;3.00;;;;;19.10;100.00;101133.53;5098325;27;45421;-69
2021/07/29 00:08:53;;;;;;;;;2.50;2.00;;;;;19.07;100.00;101129.25;5096111;27;46120;-69
2021/07/29 00:11:22;;;;;;;;;3.00;3.00;;;;;19.03;100.00;101121.50;5096563;27;45467;-68
2021/07/29 00:13:50;;;;;;;;;5.00;2.00;;;;;19.05;100.00;101140.84;5098494;27;45344;-68
2021/07/29 00:16:16;;;;;;;;;2.25;2.25;;;;;18.95;100.00;101111.22;5095284;27;45537;-69
2021/07/29 00:21:25;;;;;;;;;1.75;1.75;;;;;18.97;100.00;101135.84;5097766;27;45722;-69
2021/07/29 00:23:50;;;;;;;;;2.75;1.75;;;;;18.95;100.00;101132.41;5092700;27;45328;-69
2021/07/29 00:26:17;;;;;;;;;3.00;3.00;;;;;18.90;100.00;101140.53;5083528;27;45394;-69
2021/07/29 00:28:42;;;;;;;;;2.00;2.00;;;;;18.87;100.00;101137.19;5097932;27;45340;-69
2021/07/29 00:31:07;;;;;;;;;3.00;2.50;;;;;18.82;100.00;101137.38;5090584;27;46453;-69
2021/07/29 00:33:33;;;;;;;;;3.00;2.25;;;;;18.79;100.00;101137.50;5098428;27;45312;-69
2021/07/29 00:35:58;;;;;;;;;3.00;2.75;;;;;18.74;100.00;101134.16;5097944;27;45665;-69
2021/07/29 00:38:23;;;;;;;;;2.00;2.00;;;;;18.80;100.00;101146.31;5091085;27;45423;-69
2021/07/29 00:40:49;;;;;;;;;2.00;2.00;;;;;18.70;100.00;101122.00;5092826;27;46766;-69
2021/07/29 00:43:16;;;;;;;;;1.00;1.00;;;;;18.66;100.00;101128.34;5095534;27;46105;-68
2021/07/29 00:45:43;;;;;;;;;3.25;2.00;;;;;18.70;100.00;101140.50;5084829;27;45448;-68
2021/07/29 00:48:10;;;;;;;;;2.25;1.75;;;;;18.65;100.00;101129.28;5096223;27;45561;-69
2021/07/29 00:50:36;;;;;;;;;2.00;2.00;;;;;18.62;100.00;101134.66;5091768;27;46253;-69
2021/07/29 00:53:04;;;;;;;;;2.00;2.00;;;;;18.61;100.00;101139.09;5096803;27;45353;-69
2021/07/29 00:55:30;;;;;;;;;3.00;2.75;;;;;18.58;100.00;101133.06;5095676;27;45451;-69
2021/07/29 00:57:57;;;;;;;;;3.50;2.00;;;;;18.54;100.00;101136.75;5096493;27;45447;-69
2021/07/29 01:00:22;;;;;;;;;3.75;3.00;;;;;18.48;100.00;101137.00;5096176;27;46471;-69
2021/07/29 01:02:48;;;;;;;;;3.00;3.00;;;;;18.45;100.00;101139.78;5096572;27;45386;-68
2021/07/29 01:05:13;;;;;;;;;2.00;2.00;;;;;18.47;100.00;101141.44;5096040;27;45481;-69
2021/07/29 01:07:39;;;;;;;;;2.50;2.00;;;;;18.36;100.00;101128.66;5083263;27;45428;-69
2021/07/29 01:10:05;;;;;;;;;3.00;2.25;;;;;18.41;100.00;101136.41;5094651;27;46168;-68
2021/07/29 01:12:30;;;;;;;;;4.00;3.00;;;;;18.32;100.00;101134.09;5090612;27;45694;-68
2021/07/29 01:14:56;;;;;;;;;3.75;3.00;;;;;18.35;100.00;101142.78;5092117;27;45473;-68
2021/07/29 01:17:22;;;;;;;;;3.00;2.00;;;;;18.26;100.00;101137.00;5096390;27;45379;-68
2021/07/29 01:19:47;;;;;;;;;3.75;3.00;;;;;18.29;100.00;101147.44;5091017;27;45320;-69
2021/07/29 01:22:13;;;;;;;;;2.75;2.75;;;;;18.19;100.00;101128.47;5095344;27;45322;-68
2021/07/29 01:24:38;;;;;;;;;4.00;3.25;;;;;18.10;100.00;101126.16;5096832;27;45277;-68
2021/07/29 01:27:04;;;;;;;;;6.00;4.00;;;;;18.19;100.00;101151.38;5097436;27;45371;-69
2021/07/29 01:29:29;;;;;;;;;2.50;2.50;;;;;18.17;100.00;101147.94;5095419;27;46298;-68
2021/07/29 01:31:54;;;;;;;;;2.00;2.00;;;;;18.19;100.00;101146.09;5088030;27;45473;-69
2021/07/29 01:34:20;;;;;;;;;2.25;1.00;;;;;18.18;100.00;101144.38;5092809;27;45408;-69
2021/07/29 01:36:46;;;;;;;;;3.00;3.00;;;;;18.15;100.00;101140.06;5097246;27;45238;-68
2021/07/29 01:39:11;;;;;;;;;3.50;3.00;;;;;18.19;100.00;101161.97;5093356;27;45537;-68
2021/07/29 01:41:36;;;;;;;;;5.00;3.00;;;;;18.21;100.00;101158.34;5094584;27;46470;-68
2021/07/29 01:44:02;;;;;;;;;2.00;2.00;;;;;18.19;100.00;101156.66;5094321;27;45441;-68
2021/07/29 01:46:27;;;;;;;;;4.00;2.25;;;;;18.15;100.00;101150.66;5097376;27;45324;-68
2021/07/29 01:48:53;;;;;;;;;4.00;3.00;;;;;18.12;100.00;101161.34;5096817;27;46257;-69
2021/07/29 01:51:18;;;;;;;;;5.00;3.50;;;;;18.13;100.00;101156.91;5093328;27;45518;-69
2021/07/29 01:53:43;;;;;;;;;4.25;3.00;;;;;18.08;100.00;101153.56;5095812;27;45502;-69
2021/07/29 01:56:09;;;;;;;;;2.50;2.50;;;;;18.01;100.00;101159.09;5097304;27;45641;-69
2021/07/29 01:58:35;;;;;;;;;2.75;2.00;;;;;18.02;100.00;101155.53;5095106;27;46285;-69
2021/07/29 02:01:00;;;;;;;;;3.00;2.00;;;;;17.92;100.00;101143.63;5085878;27;45366;-70
2021/07/29 02:03:26;;;;;;;;;4.00;3.00;;;;;17.98;100.00;101159.22;5096782;27;45970;-69
2021/07/29 02:05:51;;;;;;;;;5.00;3.00;;;;;17.99;100.00;101157.44;5096805;27;45368;-70
2021/07/29 02:08:17;;;;;;;;;2.25;2.25;;;;;17.95;100.00;101147.91;5092663;27;46614;-69
2021/07/29 02:10:42;;;;;;;;;3.50;3.00;;;;;17.97;100.00;101154.84;5079224;27;45584;-69
2021/07/29 02:13:07;;;;;;;;;3.00;2.00;;;;;17.87;100.00;101142.03;5092939;27;45249;-69
2021/07/29 02:15:33;;;;;;;;;2.00;2.00;;;;;17.96;100.00;101165.50;5088882;27;45460;-69
2021/07/29 02:18:00;;;;;;;;;3.00;3.00;;;;;17.93;100.00;101155.03;5084543;27;46477;-69
2021/07/29 02:20:26;;;;;;;;;4.00;3.00;;;;;17.88;100.00;101154.31;5078916;27;45406;-69
2021/07/29 02:22:52;;;;;;;;;3.00;3.00;;;;;17.92;100.00;101148.03;5106567;27;45604;-69
2021/07/29 02:25:18;;;;;;;;;3.50;3.00;;;;;17.89;100.00;101161.38;5089587;27;45600;-69
2021/07/29 02:27:44;;;;;;;;;2.50;2.25;;;;;17.85;100.00;101157.94;5095203;27;45397;-69
2021/07/29 02:30:10;;;;;;;;;2.50;2.25;;;;;17.84;100.00;101153.59;5093051;27;45849;-69
2021/07/29 02:32:35;;;;;;;;;4.00;4.00;;;;;17.70;100.00;101137.41;5098729;27;45404;-69
2021/07/29 02:35:01;;;;;;;;;3.00;3.00;;;;;17.85;100.00;101160.59;5100739;27;45373;-68
2021/07/29 02:37:27;;;;;;;;;3.00;3.00;;;;;17.84;100.00;101166.78;5099942;27;46582;-69
2021/07/29 02:39:52;;;;;;;;;3.00;2.00;;;;;17.82;100.00;101163.34;5100499;27;45216;-69
2021/07/29 02:42:18;;;;;;;;;4.25;3.50;;;;;17.76;100.00;101160.94;5100393;27;45228;-69
2021/07/29 02:44:43;;;;;;;;;3.00;3.00;;;;;17.78;100.00;101166.16;5100751;27;45430;-69
2021/07/29 02:47:09;;;;;;;;;2.75;2.75;;;;;17.79;100.00;101163.47;5099864;27;46257;-69
2021/07/29 02:49:35;;;;;;;;;2.00;2.00;;;;;17.78;100.00;101161.75;5100284;27;45373;-69
2021/07/29 02:52:00;;;;;;;;;2.00;2.00;;;;;17.68;100.00;101153.31;5100423;27;45414;-69
2021/07/29 02:54:26;;;;;;;;;3.50;3.00;;;;;17.71;100.00;101160.25;5100604;27;45303;-68
2021/07/29 02:56:52;;;;;;;;;2.75;2.75;;;;;17.70;100.00;101167.31;5100183;27;45318;-69
2021/07/29 02:59:17;;;;;;;;;4.00;2.50;;;;;17.64;100.00;101167.50;5099721;27;45386;-68
2021/07/29 03:01:43;;;;;;;;;4.00;3.00;;;;;17.65;100.00;101165.72;5099312;27;45424;-70
2021/07/29 03:04:08;;;;;;;;;4.00;3.00;;;;;17.64;100.00;101171.91;5088787;27;45584;-69
2021/07/29 03:06:33;;;;;;;;;4.25;4.25;;;;;17.64;100.00;101169.28;5097265;27;46139;-69
2021/07/29 03:09:00;;;;;;;;;3.00;3.00;;;;;17.65;100.00;101179.81;5099569;27;45352;-69
2021/07/29 03:11:26;;;;;;;;;3.25;3.00;;;;;17.60;100.00;101167.66;5100072;27;45390;-69
2021/07/29 03:13:51;;;;;;;;;4.25;3.00;;;;;17.62;100.00;101179.91;5100245;27;45419;-69
2021/07/29 03:16:16;;;;;;;;;3.50;2.50;;;;;17.60;100.00;101173.81;5099211;27;45702;-69
2021/07/29 03:18:42;;;;;;;;;5.50;4.00;;;;;17.61;100.00;101187.88;5099419;27;45289;-70
2021/07/29 03:21:08;;;;;;;;;3.00;3.00;;;;;17.54;100.00;101178.47;5099924;27;45693;-69
2021/07/29 03:23:37;;;;;;;;;3.50;2.50;;;;;17.51;100.00;101183.84;5099792;27;45373;-70
2021/07/29 03:26:03;;;;;;;;;3.00;2.50;;;;;17.48;100.00;101176.06;5099763;27;47150;-69
2021/07/29 03:28:29;;;;;;;;;3.75;2.00;;;;;17.49;100.00;101178.63;5099623;27;45427;-69
2021/07/29 03:30:55;;;;;;;;;2.50;2.50;;;;;17.46;100.00;101173.47;5099169;27;45509;-69
2021/07/29 03:33:21;;;;;;;;;4.00;2.00;;;;;17.49;100.00;101178.63;5099499;27;45549;-69
2021/07/29 03:35:47;;;;;;;;;5.75;4.00;;;;;17.35;100.00;101163.28;5099227;27;47404;-68
2021/07/29 03:38:13;;;;;;;;;3.75;2.75;;;;;17.42;100.00;101185.88;5099372;27;45564;-69
2021/07/29 03:40:39;;;;;;;;;3.25;2.00;;;;;17.40;100.00;101184.22;5098992;27;45331;-69
2021/07/29 03:43:07;;;;;;;;;2.75;2.00;;;;;17.36;100.00;101180.84;5099262;27;45325;-69
2021/07/29 03:45:34;;;;;;;;;3.00;2.00;;;;;17.34;100.00;101187.09;5098647;27;45466;-69
2021/07/29 03:48:00;;;;;;;;;4.50;2.50;;;;;17.26;100.00;101175.94;5099305;27;45648;-69
2021/07/29 03:50:26;;;;;;;;;3.25;2.50;;;;;17.27;100.00;101178.53;5099883;27;45874;-69
2021/07/29 03:52:52;;;;;;;;;4.00;2.00;;;;;17.19;100.00;101175.28;5098800;27;45535;-69
2021/07/29 03:55:17;;;;;;;;;3.25;3.00;;;;;17.20;100.00;101195.50;5099412;27;45316;-70
2021/07/29 03:57:42;;;;;;;;;4.25;3.00;;;;;17.11;100.00;101174.69;5099433;27;45417;-69
2021/07/29 04:00:09;;;;;;;;;4.75;4.00;;;;;17.19;100.00;101195.53;5099320;27;45487;-70
2021/07/29 04:02:35;;;;;;;;;3.00;2.00;;;;;17.19;100.00;101191.09;5098771;27;45446;-69
2021/07/29 04:05:01;;;;;;;;;4.00;3.75;;;;;17.06;100.00;101181.91;5098713;27;45401;-69
2021/07/29 04:07:30;;;;;;;;;3.00;2.00;;;;;17.12;100.00;101194.88;5097937;27;45458;-69
2021/07/29 04:09:55;;;;;;;;;5.25;3.00;;;;;17.15;100.00;101197.41;5084906;27;45354;-69
2021/07/29 04:12:21;;;;;;;;;6.25;3.75;;;;;17.14;100.00;101195.69;5099304;27;45342;-69
2021/07/29 04:14:47;;;;;;;;;2.00;2.00;;;;;17.10;100.00;101200.22;5098874;27;46286;-69
2021/07/29 04:17:13;;;;;;;;;3.50;3.00;;;;;17.05;100.00;101188.09;5098973;27;45405;-69
2021/07/29 04:19:38;;;;;;;;;2.25;1.75;;;;;16.97;100.00;101184.84;5098732;27;45504;-70
2021/07/29 04:22:07;;;;;;;;;3.00;3.00;;;;;17.03;100.00;101197.84;5099258;27;45415;-69
2021/07/29 04:24:33;;;;;;;;;3.00;2.00;;;;;16.96;100.00;101186.59;5098452;27;46714;-69
2021/07/29 04:26:59;;;;;;;;;3.25;2.50;;;;;17.02;100.00;101199.63;5085163;27;45333;-69
2021/07/29 04:29:27;;;;;;;;;3.00;3.00;;;;;17.00;100.00;101201.44;5098448;27;45259;-69
2021/07/29 04:31:53;;;;;;;;;4.00;2.00;;;;;17.01;100.00;101204.94;5099275;27;45289;-69
2021/07/29 04:34:19;;;;;;;;;4.00;1.75;;;;;16.99;100.00;101191.81;5092857;27;45502;-69
2021/07/29 04:36:45;;;;;;;;;2.00;2.00;;;;;17.05;100.00;101196.88;5098565;27;45255;-69
2021/07/29 04:39:11;;;;;;;;;4.00;2.50;;;;;16.99;100.00;101190.94;5098267;27;45465;-69
2021/07/29 04:41:43;;;;;;;;;4.00;3.00;;;;;17.02;100.00;101202.25;5099158;27;45426;-69
2021/07/29 04:44:10;;;;;;;;;3.50;3.00;;;;;16.98;100.00;101189.22;5097974;27;45625;-69
2021/07/29 04:46:36;;;;;;;;;3.00;3.00;;;;;17.03;100.00;101208.41;5098509;27;45313;-69
2021/07/29 04:49:06;;;;;;;;;3.00;2.25;;;;;17.03;100.00;101208.41;5098359;27;45495;-69
2021/07/29 04:51:33;;;;;;;;;2.00;2.00;;;;;16.97;100.00;101196.25;5098099;27;45498;-69
2021/07/29 04:53:58;;;;;;;;;3.00;3.00;;;;;16.96;100.00;101197.16;5097617;27;46424;-69
2021/07/29 04:56:24;;;;;;;;;2.00;1.00;;;;;17.03;100.00;101211.03;5097306;27;45319;-69
2021/07/29 04:58:49;;;;;;;;;3.50;2.00;;;;;17.04;100.00;101215.41;5098398;27;45287;-69
2021/07/29 05:01:18;;;;;;;;;3.00;3.00;;;;;16.98;100.00;101203.28;5097958;27;45335;-69
2021/07/29 05:03:44;;;;;;;;;3.75;2.50;;;;;17.05;100.00;101217.13;5097678;27;46559;-69
2021/07/29 05:06:10;;;;;;;;;2.75;2.75;;;;;17.01;100.00;101197.91;5097652;27;45406;-69
2021/07/29 05:08:38;;;;;;;;;3.00;3.00;;;;;17.02;100.00;101202.25;5098311;27;45565;-69
2021/07/29 05:11:04;;;;;;;;;4.00;3.50;;;;;17.07;100.00;101204.72;5098023;27;45411;-69
2021/07/29 05:13:31;;;;;;;;;3.50;3.25;;;;;16.97;100.00;101193.59;5097907;27;45518;-69
2021/07/29 05:15:56;;;;;;;;;4.00;3.25;;;;;17.06;100.00;101214.44;5097627;27;45597;-69
2021/07/29 05:18:21;;;;;;;;;3.75;3.50;;;;;17.07;100.00;101210.88;5097360;27;45731;-69
2021/07/29 05:20:47;;;;;;;;;3.00;3.00;;;;;17.03;100.00;101203.13;5097940;27;45535;-69
2021/07/29 05:23:13;;;;;;;;;2.00;2.00;;;;;17.07;100.00;101215.28;5097603;27;45348;-69
2021/07/29 05:25:38;;;;;;;;;3.00;3.00;;;;;17.06;100.00;101214.44;5097596;27;45332;-69
2021/07/29 05:28:04;;;;;;;;;4.75;4.00;;;;;17.12;100.00;101214.22;5089870;27;45626;-69
2021/07/29 05:30:30;;;;;;;;;4.25;3.50;;;;;17.13;100.00;101215.06;5088794;27;45525;-70
2021/07/29 05:32:57;;;;;;;;;2.75;2.75;;;;;17.15;100.00;101221.16;5096959;27;47528;-70
2021/07/29 05:35:23;;;;;;;;;3.00;2.00;;;;;17.18;100.00;101225.47;5096725;27;45280;-70
2021/07/29 05:37:48;;;;;;;;;3.50;3.50;;;;;17.17;100.00;101221.09;5093075;27;45522;-70
2021/07/29 05:40:13;;;;;;;;;2.25;2.25;;;;;17.17;100.00;101219.31;5091089;27;45339;-70
2021/07/29 05:42:39;;;;;;;;;3.50;2.00;;;;;17.21;100.00;101225.38;5097274;27;45491;-70
2021/07/29 05:45:05;;;;;;;;;2.00;2.00;;;;;17.20;100.00;101223.63;5097412;27;45401;-69
2021/07/29 05:47:30;;;;;;;;;4.25;3.00;;;;;17.24;100.00;101220.00;5096753;27;45429;-69
2021/07/29 05:49:55;;;;;;;;;3.75;3.00;;;;;17.28;100.00;101229.53;5097680;27;45433;-70
2021/07/29 05:52:21;;;;;;;;;3.25;3.00;;;;;17.25;100.00;101214.66;5095608;27;46380;-70
2021/07/29 05:54:52;;;;;;;;;4.75;3.25;;;;;17.37;100.00;101216.00;5097529;27;45303;-70
2021/07/29 05:57:18;;;;;;;;;3.75;2.25;;;;;17.49;100.00;101212.09;5096812;27;45400;-72
2021/07/29 05:59:43;;;;;;;;;4.50;4.00;;;;;17.52;100.00;101210.19;5095564;27;45656;-72
2021/07/29 06:02:08;;;;;;;;;4.25;3.00;;;;;17.56;100.00;101213.59;5089152;27;46531;-71
2021/07/29 06:04:34;;;;;;;;;3.50;3.00;;;;;17.46;100.00;101197.22;5088596;27;45460;-72
2021/07/29 06:06:59;;;;;;;;;4.00;3.00;;;;;17.63;100.00;101228.28;5096354;27;45241;-72
2021/07/29 06:09:25;;;;;;;;;2.75;2.00;;;;;17.61;100.00;101232.75;5086548;27;45555;-71
2021/07/29 06:11:50;;;;;;;;;3.75;3.00;;;;;17.58;100.00;101222.31;5090295;27;46071;-70
2021/07/29 06:14:15;;;;;;;;;3.50;3.00;;;;;17.65;100.00;101235.28;5083742;27;45405;-71
2021/07/29 06:16:41;;;;;;;;;4.00;3.00;;;;;17.68;100.00;101234.31;5083485;27;45654;-71
2021/07/29 06:19:09;;;;;;;;;2.25;2.25;;;;;17.68;100.00;101229.91;5092597;27;45417;-72
2021/07/29 06:21:36;;;;;;;;;3.00;3.00;;;;;17.67;100.00;101228.19;5096253;27;46572;-71
2021/07/29 06:24:02;;;;;;;;;3.25;3.25;;;;;17.74;100.00;101242.88;5096754;27;45636;-72
2021/07/29 06:26:28;;;;;;;;;3.00;3.00;;;;;17.72;100.00;101235.94;5096581;27;45312;-71
2021/07/29 06:28:53;;;;;;;;;3.00;3.00;;;;;17.84;100.00;101255.75;5091738;27;45456;-72
2021/07/29 06:31:19;;;;;;;;;4.00;3.25;;;;;17.86;100.00;101252.13;5096162;27;46561;-70
2021/07/29 06:33:44;;;;;;;;;3.75;3.75;;;;;17.80;100.00;101239.16;5094629;27;45324;-70
2021/07/29 06:36:09;;;;;;;;;3.25;3.00;;;;;17.96;100.00;101255.31;5092783;27;45399;-72
2021/07/29 06:38:37;;;;;;;;;3.50;3.00;;;;;17.96;100.00;101245.59;5096955;27;45395;-73
2021/07/29 06:41:06;;;;;;;;;5.00;2.00;;;;;17.97;100.00;101246.47;5081583;27;45443;-70
2021/07/29 06:43:32;;;;;;;;;4.25;3.25;;;;;18.01;100.00;101248.06;5096313;27;45569;-70
2021/07/29 06:46:07;;;;;;;;;3.25;2.75;;;;;18.10;100.00;101260.06;5095258;27;45431;-72
2021/07/29 06:48:35;;;;;;;;;4.00;3.50;;;;;18.18;100.00;101260.66;5096815;27;45290;-72
2021/07/29 06:51:04;;;;;;;;;4.25;4.00;;;;;18.23;100.00;101271.94;5096108;27;45346;-69
2021/07/29 06:53:30;;;;;;;;;4.00;3.00;;;;;18.28;100.00;101272.59;5096337;27;45320;-71
2021/07/29 06:56:00;;;;;;;;;4.50;3.00;;;;;18.33;100.00;101274.19;5096087;27;45524;-72
2021/07/29 06:58:26;;;;;;;;;4.50;3.50;;;;;18.37;100.00;101274.91;5096622;27;45379;-72
2021/07/29 07:00:51;;;;;;;;;3.00;2.75;;;;;18.36;100.00;101265.28;5095497;27;46308;-71
2021/07/29 07:03:17;;;;;;;;;4.00;3.00;;;;;18.44;100.00;101268.47;5096053;27;45443;-71
2021/07/29 07:05:45;;;;;;;;;4.00;3.00;;;;;18.50;100.00;101276.16;5095673;27;45674;-73
2021/07/29 07:08:14;;;;;;;;;2.50;2.00;;;;;18.58;100.00;101276.75;5095781;27;45565;-73
2021/07/29 07:10:40;;;;;;;;;4.00;3.00;;;;;18.53;100.00;101276.03;5094660;27;47075;-73
2021/07/29 07:13:05;;;;;;;;;4.00;3.00;;;;;18.53;100.00;101277.81;5096402;27;45390;-72
2021/07/29 07:15:31;;;;;;;;;3.75;3.25;;;;;18.63;100.00;101287.19;5096310;27;45249;-72
2021/07/29 07:17:56;;;;;;;;;4.00;3.75;;;;;18.68;100.00;101285.19;5097284;27;45459;-72
2021/07/29 07:20:25;;;;;;;;;5.00;4.00;;;;;18.78;100.00;101297.13;5099142;27;45623;-71
2021/07/29 07:22:52;;;;;;;;;4.00;3.75;;;;;18.84;100.00;101301.34;5099228;27;45690;-71
2021/07/29 07:25:19;;;;;;;;;3.75;3.75;;;;;18.87;100.00;101293.28;5099549;27;45296;-74
2021/07/29 07:27:44;;;;;;;;;3.50;3.50;;;;;18.96;100.00;101300.84;5098682;27;45396;-72
2021/07/29 07:30:10;;;;;;;;;5.75;4.00;;;;;19.05;100.00;101303.13;5099108;27;46326;-72
2021/07/29 07:32:36;;;;;;;;;3.50;3.00;;;;;19.17;100.00;101286.72;5099597;27;45332;-72
2021/07/29 07:35:03;;;;;;;;;2.75;2.00;;;;;19.38;100.00;101295.56;5099623;27;45656;-72
2021/07/29 07:37:29;;;;;;;;;5.75;5.25;;;;;19.44;100.00;101282.06;5099267;27;45557;-72
2021/07/29 07:39:54;;;;;;;;;6.25;4.00;;;;;19.73;100.00;101290.63;5099359;27;46440;-71
2021/07/29 07:42:19;;;;;;;;;4.00;4.00;;;;;19.88;100.00;101300.53;5098852;27;45407;-71
2021/07/29 07:44:45;;;;;;;;;4.00;4.00;;;;;19.92;100.00;101288.03;5098564;27;45390;-71
2021/07/29 07:47:10;;;;;;;;;4.50;4.00;;;;;19.92;100.00;101295.97;5098846;27;45395;-71
2021/07/29 07:49:38;;;;;;;;;5.00;5.00;;;;;19.95;100.00;101290.53;5099387;27;45417;-71
2021/07/29 07:52:05;;;;;;;;;5.25;3.00;;;;;19.97;100.00;101286.03;5099278;27;45492;-71
2021/07/29 07:54:31;;;;;;;;;4.00;3.25;;;;;20.02;100.00;101290.19;5099067;27;45201;-71
2021/07/29 07:56:56;;;;;;;;;3.25;3.25;;;;;19.97;100.00;101278.06;5098077;27;47180;-70
2021/07/29 07:59:21;;;;;;;;;3.75;2.25;;;;;19.93;100.00;101260.59;5098094;27;46270;-71
2021/07/29 08:01:47;;;;;;;;;4.25;4.25;;;;;19.97;100.00;101270.97;5099036;27;45533;-70
2021/07/29 08:04:12;;;;;;;;;4.00;3.50;;;;;20.02;100.00;101278.72;5098158;27;45710;-72
2021/07/29 08:06:37;;;;;;;;;3.50;3.25;;;;;20.02;100.00;101278.72;5098508;27;45473;-71
2021/07/29 08:09:03;;;;;;;;;3.25;3.00;;;;;20.10;100.00;101290.69;5098659;27;45607;-72
2021/07/29 08:11:29;;;;;;;;;3.00;3.00;;;;;20.13;100.00;101292.34;5098876;27;45722;-72
2021/07/29 08:13:55;;;;;;;;;5.25;3.25;;;;;20.19;100.00;101286.78;5098767;27;45473;-71
2021/07/29 08:16:20;;;;;;;;;3.50;3.50;;;;;20.35;100.00;101290.44;5099338;27;45372;-71
2021/07/29 08:18:45;;;;;;;;;4.00;3.25;;;;;20.40;100.00;101283.19;5098090;27;46614;-72
2021/07/29 08:21:12;;;;;;;;;4.75;3.00;;;;;20.50;100.00;101283.59;5098501;27;45332;-72
2021/07/29 08:23:39;;;;;;;;;2.75;2.00;;;;;20.55;100.00;101296.63;5098424;27;45550;-72
2021/07/29 08:26:05;;;;;;;;;2.00;1.00;;;;;20.61;100.00;101286.63;5098973;27;45468;-71
2021/07/29 08:28:31;;;;;;;;;2.75;2.00;;;;;20.75;100.00;101288.59;5098074;27;46180;-71
2021/07/29 08:30:56;;;;;;;;;2.00;2.00;;;;;20.91;100.00;101278.13;5096931;27;45240;-72
2021/07/29 08:33:22;;;;;;;;;1.25;1.25;;;;;21.09;100.00;101275.41;5098141;27;45479;-72
2021/07/29 08:35:48;;;;;;;;;3.00;3.00;;;;;21.30;100.00;101278.84;5098351;27;45479;-71
2021/07/29 08:38:13;;;;;;;;;3.00;2.00;;;;;21.45;100.00;101274.53;5098372;27;46136;-71
2021/07/29 08:40:38;;;;;;;;;3.00;2.25;;;;;21.58;100.00;101285.41;5097690;27;45394;-72
2021/07/29 08:43:04;;;;;;;;;2.00;2.00;;;;;21.60;100.00;101280.88;5097812;27;45405;-71
2021/07/29 08:45:31;;;;;;;;;1.75;1.50;;;;;21.62;100.00;101286.97;5098606;27;45303;-71
2021/07/29 08:47:57;;;;;;;;;3.00;2.75;;;;;21.56;100.00;101280.16;5096331;27;48159;-71
2021/07/29 08:50:23;;;;;;;;;4.00;2.25;;;;;21.56;100.00;101282.81;5098165;27;45482;-70
2021/07/29 08:52:52;;;;;;;;;4.25;2.50;;;;;21.67;100.00;101277.81;5097953;27;45553;-72
2021/07/29 08:55:18;;;;;;;;;3.75;3.25;;;;;21.73;100.00;101279.31;5098660;27;45461;-71
2021/07/29 08:57:44;;;;;;;;;2.75;2.25;;;;;21.80;100.00;101279.84;5097249;27;45706;-71
2021/07/29 09:00:11;;;;;;;;;2.25;1.75;;;;;21.92;100.00;101274.72;5087606;27;45433;-70
2021/07/29 09:02:37;;;;;;;;;2.25;2.25;;;;;22.08;100.00;101265.97;5097770;27;45400;-71
2021/07/29 09:05:21;;;;;;;;;2.75;2.00;;;;;22.17;100.00;101263.66;5098106;27;45332;-71
2021/07/29 09:08:08;;;;;;;;;2.00;2.00;;;;;22.27;100.00;101264.03;5097462;27;47155;-71
2021/07/29 09:10:39;;;;;;;;;4.75;4.75;;;;;22.35;100.00;101266.25;5098009;27;45281;-72
2021/07/29 09:13:11;;;;;;;;;3.00;2.50;;;;;22.46;100.00;101280.69;5097698;27;45302;-71
2021/07/29 09:15:37;;;;;;;;;2.00;2.00;;;;;22.31;100.00;101274.41;5098107;27;45548;-72
2021/07/29 09:18:03;;;;;;;;;3.00;3.00;;;;;22.38;100.00;101272.25;5096757;27;47232;-71
2021/07/29 09:20:29;;;;;;;;;1.75;1.75;;;;;22.45;100.00;101263.03;5097689;27;45652;-71
2021/07/29 09:22:55;;;;;;;;;3.00;2.75;;;;;22.61;100.00;101266.53;5097471;27;45473;-71
2021/07/29 09:25:26;;;;;;;;;2.00;1.50;;;;;22.82;100.00;101267.16;5098072;27;45414;-71
2021/07/29 09:27:52;;;;;;;;;3.00;2.50;;;;;23.01;100.00;101253.66;5097232;27;45334;-71
2021/07/29 09:30:26;;;;;;;;;4.00;3.00;;;;;23.00;100.00;101275.03;5096723;27;45465;-70
2021/07/29 09:32:59;;;;;;;;;5.00;3.00;;;;;22.76;100.00;101271.94;5090406;27;45328;-71
2021/07/29 09:35:45;;;;;;;;;5.00;3.25;;;;;22.77;100.00;101268.34;5097398;27;45249;-71
2021/07/29 09:38:24;;;;;;;;;3.00;3.00;;;;;22.94;100.00;101259.44;5096837;27;46257;-70
2021/07/29 09:40:59;;;;;;;;;2.75;1.50;;;;;23.28;100.00;101264.50;5096780;27;45723;-69
2021/07/29 09:43:29;;;;;;;;;1.00;1.00;;;;;23.51;100.00;101244.47;5085701;27;45416;-70
2021/07/29 09:45:56;;;;;;;;;1.75;1.75;;;;;23.82;100.00;101255.03;5095451;27;45443;-70
2021/07/29 09:48:22;;;;;;;;;2.75;1.50;;;;;23.75;100.00;101245.66;5096862;27;45596;-70
2021/07/29 09:51:01;;;;;;;;;2.50;1.50;;;;;23.83;100.00;101255.88;5096851;27;45718;-70
2021/07/29 09:53:33;;;;;;;;;6.00;5.50;;;;;24.13;100.00;101261.97;5097348;27;45479;-70
2021/07/29 09:55:59;;;;;;;;;3.00;1.75;;;;;24.47;100.00;101248.38;5096693;27;45812;-70
2021/07/29 09:58:24;;;;;;;;;1.00;0.75;;;;;25.04;100.00;101251.72;5096695;27;45561;-70
2021/07/29 10:00:50;;;;;;;;;1.25;1.25;;;;;25.77;100.00;101245.88;5096575;27;45538;-70
2021/07/29 10:03:21;;;;;;;;;3.00;2.00;;;;;26.85;100.00;101252.31;5097402;27;45407;-71
2021/07/29 10:05:52;;;;;;;;;2.00;2.00;;;;;27.35;100.00;101247.66;5097087;27;45434;-70
2021/07/29 10:08:34;;;;;;;;;3.00;2.00;;;;;26.81;100.00;101261.56;5083595;27;46218;-70
2021/07/29 10:11:03;;;;;;;;;3.00;2.75;;;;;26.26;100.00;101251.31;5096368;27;45611;-70
2021/07/29 10:13:33;;;;;;;;;3.00;2.00;;;;;26.57;100.00;101247.28;5097171;27;45295;-71
2021/07/29 10:15:59;;;;;;;;;2.00;1.75;;;;;26.25;100.00;101245.09;5097267;27;46846;-71
2021/07/29 10:18:24;;;;;;;;;1.00;1.00;;;;;26.27;99.71;101245.00;5096004;27;45386;-70
2021/07/29 10:21:25;;;;;;;;;2.25;2.00;;;;;26.63;100.00;101252.19;5096382;27;45260;-71
2021/07/29 10:23:53;;;;;;;;;1.75;1.75;;;;;26.34;100.00;101248.97;5094773;27;45466;-71
2021/07/29 10:26:19;;;;;;;;;1.75;1.00;;;;;25.85;100.00;101249.75;5095216;27;45405;-70
2021/07/29 10:28:44;;;;;;;;;2.00;2.00;;;;;25.33;100.00;101239.91;5095021;27;48350;-70
2021/07/29 10:31:12;;;;;;;;;2.75;2.50;;;;;25.05;100.00;101237.41;5096460;27;45417;-72
2021/07/29 10:33:38;;;;;;;;;1.00;0.00;;;;;25.00;100.00;101237.72;5095260;27;45373;-70
2021/07/29 10:36:05;;;;;;;;;2.00;2.00;;;;;25.93;100.00;101242.03;5083961;27;45566;-70
2021/07/29 10:38:51;;;;;;;;;1.00;1.00;;;;;27.64;100.00;101228.50;5096233;27;45765;-71
2021/07/29 10:41:22;;;;;;;;;2.00;1.75;;;;;29.27;86.48;101223.22;5093777;27;45206;-71
2021/07/29 10:43:47;;;;;;;;;3.00;2.00;;;;;29.73;85.23;101203.16;5095564;27;45261;-71
2021/07/29 10:46:13;;;;;;;;;2.00;1.25;;;;;31.01;80.50;101221.25;5096906;27;45469;-71
2021/07/29 10:51:10;;;;;;;;;1.00;1.00;;;;;33.57;70.88;101228.47;5096566;27;45392;-71
2021/07/29 10:53:38;;;;;;;;;3.00;1.00;;;;;34.04;65.18;101223.53;5098743;27;45480;-69
2021/07/29 10:56:06;;;;;;;;;1.00;1.00;;;;;34.03;67.25;101216.41;5099666;27;45498;-70
2021/07/29 10:58:39;;;;;;;;;0.00;0.00;;;;;33.57;61.32;101231.19;5100178;27;45544;-70
2021/07/29 11:01:04;;;;;;;;;2.00;1.00;;;;;32.10;61.49;101236.94;5099887;27;45584;-70
2021/07/29 11:03:30;;;;;;;;;1.75;0.75;;;;;31.59;67.22;101229.28;5098879;27;45791;-70
2021/07/29 11:06:05;;;;;;;;;1.00;1.00;;;;;30.38;69.34;101228.78;5100220;27;45521;-70
2021/07/29 11:08:31;;;;;;;;;2.00;1.25;;;;;29.70;72.53;101230.34;5099246;27;45450;-71
2021/07/29 11:11:01;;;;;;;;;2.00;2.00;;;;;30.96;73.88;101234.28;5099027;27;45343;-70
2021/07/29 11:13:28;;;;;;;;;0.00;0.00;;;;;32.46;68.61;101224.41;5100298;27;45425;-70
2021/07/29 11:15:58;;;;;;;;;0.00;0.00;;;;;33.63;64.20;101216.16;5099541;27;45343;-70
2021/07/29 11:18:24;;;;;;;;;0.00;0.00;;;;;32.83;63.45;101220.75;5099440;27;46539;-70
2021/07/29 11:20:50;;;;;;;;;0.75;0.25;;;;;33.08;64.37;101224.53;5099549;27;45268;-70